Time;durP1;ratioP1;P1;durP2;ratioP2;P2;SDS_P1;SDS_P2;PMS_P1;PMS_P2;Temp;Humidity;BMP_temperature;BMP_pressure;BME280_temperature;BME280_humidity;BME280_pressure;Samples;Min_cycle;Max_cycle;Signal;HPM_P1;HPM_P2
2022/07/24 00:02:14;;;;;;;;;;;;;;;23.84;52.34;99946.00;5073843;28;20003;-67
2022/07/24 00:04:39;;;;;;;;;;;;;;;23.86;52.02;99949.25;5073857;28;20421;-67
2022/07/24 00:07:04;;;;;;;;;;;;;;;23.84;52.05;99948.72;5073780;28;19917;-67
2022/07/24 00:09:30;;;;;;;;;;;;;;;23.86;52.17;99946.50;5089052;28;20285;-67
2022/07/24 00:11:55;;;;;;;;;;;;;;;23.84;52.15;99941.34;5094059;28;19917;-67
2022/07/24 00:14:20;;;;;;;;;;;;;;;23.84;51.79;99943.25;5093940;28;20314;-67
2022/07/24 00:16:45;;;;;;;;;;;;;;;23.84;52.11;99938.59;5093914;28;19918;-67
2022/07/24 00:19:11;;;;;;;;;;;;;;;23.86;51.74;99943.78;5093866;28;20255;-67
2022/07/24 00:21:36;;;;;;;;;;;;;;;23.84;51.68;99938.59;5093585;28;19924;-67
2022/07/24 00:24:01;;;;;;;;;;;;;;;23.80;51.96;99938.34;5093513;28;19978;-67
2022/07/24 00:26:26;;;;;;;;;;;;;;;23.79;51.65;99939.44;5093562;28;20290;-67
2022/07/24 00:28:52;;;;;;;;;;;;;;;23.77;51.85;99932.66;5094238;28;20346;-67
2022/07/24 00:31:17;;;;;;;;;;;;;;;23.75;51.74;99932.09;5093478;28;19938;-67
2022/07/24 00:33:42;;;;;;;;;;;;;;;23.80;51.68;99932.03;5093511;28;19920;-67
2022/07/24 00:36:08;;;;;;;;;;;;;;;23.82;51.49;99929.91;5093678;28;19916;-67
2022/07/24 00:38:33;;;;;;;;;;;;;;;23.78;51.58;99935.09;5092177;28;19916;-67
2022/07/24 00:40:58;;;;;;;;;;;;;;;23.81;51.61;99931.00;5093422;28;19916;-67
2022/07/24 00:43:23;;;;;;;;;;;;;;;23.76;51.61;99934.53;5093369;28;19955;-67
2022/07/24 00:45:49;;;;;;;;;;;;;;;23.79;51.62;99936.69;5096047;28;20003;-67
2022/07/24 00:48:14;;;;;;;;;;;;;;;23.81;51.51;99934.53;5097200;28;20358;-67
2022/07/24 00:50:39;;;;;;;;;;;;;;;23.78;51.51;99948.72;5097298;28;19923;-67
2022/07/24 00:53:05;;;;;;;;;;;;;;;23.80;51.42;99946.53;5097589;28;19916;-67
2022/07/24 00:55:30;;;;;;;;;;;;;;;23.75;51.33;99952.03;5097440;28;19923;-67
2022/07/24 00:57:55;;;;;;;;;;;;;;;23.79;51.26;99958.53;5097374;28;19916;-67
2022/07/24 01:00:21;;;;;;;;;;;;;;;23.77;51.31;99958.00;5097412;28;20431;-67
2022/07/24 01:02:46;;;;;;;;;;;;;;;23.80;51.30;99954.72;5097367;28;20339;-67
2022/07/24 01:05:11;;;;;;;;;;;;;;;23.81;51.32;99955.53;5095969;28;19916;-67
2022/07/24 01:07:37;;;;;;;;;;;;;;;23.84;51.20;99962.34;5096986;28;19916;-67
2022/07/24 01:10:02;;;;;;;;;;;;;;;23.80;51.23;99957.44;5077330;28;20015;-67
2022/07/24 01:12:27;;;;;;;;;;;;;;;23.79;51.27;99969.44;5076910;28;19917;-67
2022/07/24 01:14:53;;;;;;;;;;;;;;;23.77;51.09;99960.72;5076798;28;20366;-67
2022/07/24 01:17:18;;;;;;;;;;;;;;;23.81;50.99;99961.81;5076511;28;19916;-67
2022/07/24 01:19:43;;;;;;;;;;;;;;;23.81;50.90;99961.00;5076775;28;19921;-66
2022/07/24 01:22:09;;;;;;;;;;;;;;;23.75;51.11;99952.03;5076732;28;20386;-66
2022/07/24 01:24:34;;;;;;;;;;;;;;;23.78;51.13;99956.06;5076370;28;20007;-67
2022/07/24 01:26:59;;;;;;;;;;;;;;;23.82;50.91;99951.72;5076606;28;19924;-66
2022/07/24 01:29:24;;;;;;;;;;;;;;;23.77;50.88;99954.47;5076542;28;20337;-67
2022/07/24 01:31:50;;;;;;;;;;;;;;;23.76;50.94;99942.72;5076277;28;19916;-67
2022/07/24 01:34:15;;;;;;;;;;;;;;;23.79;50.77;99953.06;5076220;28;19931;-66
2022/07/24 01:36:40;;;;;;;;;;;;;;;23.78;50.75;99946.00;5076439;28;19917;-66
2022/07/24 01:39:06;;;;;;;;;;;;;;;23.77;50.74;99955.28;5076090;28;19917;-66
2022/07/24 01:41:31;;;;;;;;;;;;;;;23.76;50.95;99959.09;5076055;28;19916;-66
2022/07/24 01:43:56;;;;;;;;;;;;;;;23.73;50.79;99961.56;5076296;28;19916;-66
2022/07/24 01:46:21;;;;;;;;;;;;;;;23.75;50.59;99954.75;5076275;28;20393;-66
2022/07/24 01:48:47;;;;;;;;;;;;;;;23.75;50.59;99952.03;5076225;28;19916;-66
2022/07/24 01:51:12;;;;;;;;;;;;;;;23.79;50.49;99953.06;5076205;28;19920;-66
2022/07/24 01:53:37;;;;;;;;;;;;;;;23.81;50.63;99953.63;5075899;28;20267;-67
2022/07/24 01:56:03;;;;;;;;;;;;;;;23.78;50.25;99954.19;5076035;28;20009;-67
2022/07/24 01:58:28;;;;;;;;;;;;;;;23.76;50.53;99953.63;5075736;28;19923;-67
2022/07/24 02:00:53;;;;;;;;;;;;;;;23.74;50.43;99950.38;5076007;28;19923;-67
2022/07/24 02:03:19;;;;;;;;;;;;;;;23.75;50.48;99951.19;5075998;28;20290;-67
2022/07/24 02:05:44;;;;;;;;;;;;;;;23.78;50.15;99956.91;5075987;28;19917;-67
2022/07/24 02:08:09;;;;;;;;;;;;;;;23.75;50.26;99952.03;5078784;28;19923;-67
2022/07/24 02:10:34;;;;;;;;;;;;;;;23.74;50.27;99939.47;5095763;28;19916;-67
2022/07/24 02:13:00;;;;;;;;;;;;;;;23.77;50.51;99936.19;5096013;28;19916;-67
2022/07/24 02:15:25;;;;;;;;;;;;;;;23.78;49.97;99934.25;5096217;28;19923;-67
2022/07/24 02:17:51;;;;;;;;;;;;;;;23.74;50.22;99934.00;5095930;28;20320;-67
2022/07/24 02:20:16;;;;;;;;;;;;;;;23.78;50.33;99940.53;5095554;28;20006;-67
2022/07/24 02:22:42;;;;;;;;;;;;;;;23.75;50.10;99938.38;5095802;28;19916;-67
2022/07/24 02:25:07;;;;;;;;;;;;;;;23.74;49.94;99939.47;5095360;28;20370;-67
2022/07/24 02:27:32;;;;;;;;;;;;;;;23.75;49.93;99938.38;5095483;28;19974;-66
2022/07/24 02:29:58;;;;;;;;;;;;;;;23.78;49.84;99945.16;5095622;28;19916;-66
2022/07/24 02:32:24;;;;;;;;;;;;;;;23.79;50.14;99944.88;5095754;28;20377;-66
2022/07/24 02:34:49;;;;;;;;;;;;;;;23.80;50.09;99943.78;5095419;28;19916;-66
2022/07/24 02:37:15;;;;;;;;;;;;;;;23.78;49.94;99945.16;5095587;28;19923;-66
2022/07/24 02:39:40;;;;;;;;;;;;;;;23.76;49.92;99945.44;5096087;28;20438;-66
2022/07/24 02:42:05;;;;;;;;;;;;;;;23.79;49.76;99941.34;5095222;28;19920;-66
2022/07/24 02:44:30;;;;;;;;;;;;;;;23.81;49.78;99942.72;5095365;28;19916;-66
2022/07/24 02:46:56;;;;;;;;;;;;;;;23.80;49.85;99938.34;5095499;28;19916;-66
2022/07/24 02:49:21;;;;;;;;;;;;;;;23.81;49.46;99945.44;5095345;28;20330;-66
2022/07/24 02:51:47;;;;;;;;;;;;;;;23.77;49.90;99944.34;5095572;28;19916;-66
2022/07/24 02:54:12;;;;;;;;;;;;;;;23.78;49.61;99947.91;5095134;28;19927;-66
2022/07/24 02:56:37;;;;;;;;;;;;;;;23.77;49.80;99947.09;5095369;28;19960;-66
2022/07/24 02:59:02;;;;;;;;;;;;;;;23.80;49.60;99942.97;5095272;28;20270;-66
2022/07/24 03:01:28;;;;;;;;;;;;;;;23.77;49.49;99949.81;5095228;28;19920;-66
2022/07/24 03:03:53;;;;;;;;;;;;;;;23.80;49.55;99948.41;5095014;28;20247;-66
2022/07/24 03:06:18;;;;;;;;;;;;;;;23.78;49.35;99942.44;5096045;28;19916;-66
2022/07/24 03:08:43;;;;;;;;;;;;;;;23.78;49.68;99947.91;5087541;28;20347;-66
2022/07/24 03:11:09;;;;;;;;;;;;;;;23.76;49.65;99947.38;5074577;28;19916;-66
2022/07/24 03:13:34;;;;;;;;;;;;;;;23.76;49.63;99941.91;5074680;28;19931;-66
2022/07/24 03:15:59;;;;;;;;;;;;;;;23.77;49.42;99944.34;5074563;28;20279;-66
2022/07/24 03:18:24;;;;;;;;;;;;;;;23.78;49.33;99929.63;5074483;28;20363;-66
2022/07/24 03:20:50;;;;;;;;;;;;;;;23.76;49.50;99922.81;5074521;28;20417;-66
2022/07/24 03:23:15;;;;;;;;;;;;;;;23.78;49.39;99929.63;5074933;28;20104;-66
2022/07/24 03:25:40;;;;;;;;;;;;;;;23.78;49.27;99935.09;5073975;28;19946;-66
2022/07/24 03:28:06;;;;;;;;;;;;;;;23.78;49.05;99935.09;5074232;28;19916;-66
2022/07/24 03:30:31;;;;;;;;;;;;;;;23.76;49.17;99937.25;5074310;28;19917;-66
2022/07/24 03:32:56;;;;;;;;;;;;;;;23.78;49.25;99940.53;5074240;28;19924;-66
2022/07/24 03:35:21;;;;;;;;;;;;;;;23.79;49.17;99942.16;5073941;28;19923;-66
2022/07/24 03:37:47;;;;;;;;;;;;;;;23.79;49.34;99944.88;5074177;28;19959;-66
2022/07/24 03:40:12;;;;;;;;;;;;;;;23.79;49.16;99947.59;5074142;28;20391;-66
2022/07/24 03:42:37;;;;;;;;;;;;;;;23.78;49.09;99946.00;5073857;28;19939;-66
2022/07/24 03:45:03;;;;;;;;;;;;;;;23.80;49.11;99943.78;5074116;28;19920;-66
2022/07/24 03:47:28;;;;;;;;;;;;;;;23.80;49.21;99943.78;5073821;28;20294;-66
2022/07/24 03:49:53;;;;;;;;;;;;;;;23.75;49.19;99941.09;5073930;28;20367;-66
2022/07/24 03:52:19;;;;;;;;;;;;;;;23.74;49.37;99944.13;5073690;28;19970;-66
2022/07/24 03:54:44;;;;;;;;;;;;;;;23.74;49.06;99941.41;5073693;28;19944;-66
2022/07/24 03:57:09;;;;;;;;;;;;;;;23.73;49.24;99937.84;5073904;28;20003;-66
2022/07/24 03:59:34;;;;;;;;;;;;;;;23.72;49.18;99940.88;5073685;28;19917;-66
2022/07/24 04:02:00;;;;;;;;;;;;;;;23.76;49.08;99936.47;5073589;28;19923;-66
2022/07/24 04:04:25;;;;;;;;;;;;;;;23.72;49.02;99933.50;5073902;28;20290;-67
2022/07/24 04:06:50;;;;;;;;;;;;;;;23.71;49.02;99942.75;5074448;28;19952;-67
2022/07/24 04:09:16;;;;;;;;;;;;;;;23.76;48.88;99939.19;5084306;28;20011;-67
2022/07/24 04:11:44;;;;;;;;;;;;;;;23.72;48.89;99941.69;5093748;28;19923;-67
2022/07/24 04:14:09;;;;;;;;;;;;;;;23.76;48.84;99941.91;5094011;28;20011;-67
2022/07/24 04:16:34;;;;;;;;;;;;;;;23.73;49.20;99947.94;5093690;28;19959;-67
2022/07/24 04:18:59;;;;;;;;;;;;;;;23.74;48.70;99942.19;5093588;28;19916;-67
2022/07/24 04:21:25;;;;;;;;;;;;;;;23.75;48.79;99946.56;5097421;28;19922;-67
2022/07/24 04:23:50;;;;;;;;;;;;;;;23.78;48.81;99946.00;5098102;28;19930;-67
2022/07/24 04:26:15;;;;;;;;;;;;;;;23.80;49.02;99949.25;5097556;28;20329;-67
2022/07/24 04:28:41;;;;;;;;;;;;;;;23.80;48.77;99943.78;5097954;28;19916;-67
2022/07/24 04:31:07;;;;;;;;;;;;;;;23.80;48.77;99942.97;5097721;28;19916;-67
2022/07/24 04:33:32;;;;;;;;;;;;;;;23.79;48.61;99950.34;5097684;28;19927;-67
2022/07/24 04:35:57;;;;;;;;;;;;;;;23.80;48.74;99948.41;5097900;28;19969;-67
2022/07/24 04:38:23;;;;;;;;;;;;;;;23.79;48.77;99942.16;5097858;28;19943;-67
2022/07/24 04:40:48;;;;;;;;;;;;;;;23.79;49.00;99944.88;5097494;28;20286;-67
2022/07/24 04:43:13;;;;;;;;;;;;;;;23.80;48.69;99942.97;5097754;28;19924;-67
2022/07/24 04:45:38;;;;;;;;;;;;;;;23.80;48.75;99938.34;5097707;28;20369;-67
2022/07/24 04:48:04;;;;;;;;;;;;;;;23.80;48.79;99938.34;5097212;28;19916;-67
2022/07/24 04:50:29;;;;;;;;;;;;;;;23.80;48.79;99932.88;5098105;28;19916;-67
2022/07/24 04:52:54;;;;;;;;;;;;;;;23.79;48.87;99935.91;5097229;28;19946;-67
2022/07/24 04:55:20;;;;;;;;;;;;;;;23.81;48.74;99934.53;5097515;28;19916;-67
2022/07/24 04:57:45;;;;;;;;;;;;;;;23.80;48.69;99938.34;5097137;28;20321;-67
2022/07/24 05:00:10;;;;;;;;;;;;;;;23.81;48.75;99945.44;5097194;28;20342;-67
2022/07/24 05:02:36;;;;;;;;;;;;;;;23.82;48.68;99940.81;5097418;28;19916;-67
2022/07/24 05:05:01;;;;;;;;;;;;;;;23.82;48.74;99943.53;5097357;28;19938;-67
2022/07/24 05:07:26;;;;;;;;;;;;;;;23.80;48.81;99941.06;5097259;28;19995;-67
2022/07/24 05:09:52;;;;;;;;;;;;;;;23.80;49.08;99943.78;5082219;28;19924;-67
2022/07/24 05:12:17;;;;;;;;;;;;;;;23.81;48.70;99939.16;5076880;28;19920;-67
2022/07/24 05:14:42;;;;;;;;;;;;;;;23.81;48.93;99939.97;5076515;28;19920;-67
2022/07/24 05:17:07;;;;;;;;;;;;;;;23.83;48.57;99941.63;5076794;28;19916;-67
2022/07/24 05:19:32;;;;;;;;;;;;;;;23.80;48.60;99938.34;5076797;28;20362;-67
2022/07/24 05:21:58;;;;;;;;;;;;;;;23.80;48.75;99938.34;5076384;28;19916;-67
2022/07/24 05:24:24;;;;;;;;;;;;;;;23.83;48.95;99944.34;5076463;28;19924;-67
2022/07/24 05:26:50;;;;;;;;;;;;;;;23.84;48.65;99949.53;5076334;28;20314;-67
2022/07/24 05:29:15;;;;;;;;;;;;;;;23.81;48.62;99945.44;5076436;28;19916;-67
2022/07/24 05:31:40;;;;;;;;;;;;;;;23.83;48.75;99947.06;5076249;28;20364;-67
2022/07/24 05:34:06;;;;;;;;;;;;;;;23.81;48.66;99945.44;5076471;28;20313;-67
2022/07/24 05:36:31;;;;;;;;;;;;;;;23.80;48.54;99946.53;5076497;28;19917;-67
2022/07/24 05:38:56;;;;;;;;;;;;;;;23.82;48.64;99959.91;5076101;28;19917;-67
2022/07/24 05:41:22;;;;;;;;;;;;;;;23.83;48.64;99958.78;5076045;28;19916;-67
2022/07/24 05:43:47;;;;;;;;;;;;;;;23.84;48.52;99954.16;5076419;28;19962;-67
2022/07/24 05:46:12;;;;;;;;;;;;;;;23.84;48.77;99948.72;5076368;28;20417;-66
2022/07/24 05:48:37;;;;;;;;;;;;;;;23.84;48.83;99959.63;5076143;28;19916;-66
2022/07/24 05:51:03;;;;;;;;;;;;;;;23.83;48.91;99956.06;5076056;28;19920;-66
2022/07/24 05:53:28;;;;;;;;;;;;;;;23.83;48.62;99952.53;5075926;28;20011;-66
2022/07/24 05:55:53;;;;;;;;;;;;;;;23.84;48.59;99954.16;5076108;28;19949;-66
2022/07/24 05:58:18;;;;;;;;;;;;;;;23.84;48.79;99946.00;5075768;28;19978;-66
2022/07/24 06:00:44;;;;;;;;;;;;;;;23.83;48.46;99942.41;5075713;28;19916;-66
2022/07/24 06:03:09;;;;;;;;;;;;;;;23.84;48.63;99943.25;5075678;28;19917;-66
2022/07/24 06:05:34;;;;;;;;;;;;;;;23.83;48.55;99947.06;5076013;28;19929;-66
2022/07/24 06:07:59;;;;;;;;;;;;;;;23.83;48.57;99952.53;5075963;28;20314;-66
2022/07/24 06:10:25;;;;;;;;;;;;;;;23.81;48.67;99950.09;5093748;28;19919;-66
2022/07/24 06:12:51;;;;;;;;;;;;;;;23.80;48.54;99954.72;5096072;28;19916;-66
2022/07/24 06:15:16;;;;;;;;;;;;;;;23.81;48.66;99956.34;5096080;28;19923;-66
2022/07/24 06:17:42;;;;;;;;;;;;;;;23.83;48.64;99964.25;5096069;28;20010;-66
2022/07/24 06:20:07;;;;;;;;;;;;;;;23.82;48.65;99959.91;5095730;28;19954;-66
2022/07/24 06:22:33;;;;;;;;;;;;;;;23.84;48.46;99965.09;5095648;28;19965;-66
2022/07/24 06:24:59;;;;;;;;;;;;;;;23.84;48.71;99962.34;5095426;28;19925;-66
2022/07/24 06:27:24;;;;;;;;;;;;;;;23.83;48.58;99968.91;5095767;28;19947;-66
2022/07/24 06:29:49;;;;;;;;;;;;;;;23.82;48.53;99962.63;5095363;28;19961;-66
2022/07/24 06:32:14;;;;;;;;;;;;;;;23.80;48.72;99971.06;5095657;28;19924;-66
2022/07/24 06:34:40;;;;;;;;;;;;;;;23.82;48.48;99968.09;5095342;28;19920;-66
2022/07/24 06:37:05;;;;;;;;;;;;;;;23.81;48.39;99972.72;5095537;28;19923;-66
2022/07/24 06:39:30;;;;;;;;;;;;;;;23.80;48.38;99965.63;5095262;28;19916;-66
2022/07/24 06:41:55;;;;;;;;;;;;;;;23.81;48.45;99975.44;5094930;28;20397;-66
2022/07/24 06:44:22;;;;;;;;;;;;;;;23.81;48.41;99980.09;5094771;28;19916;-67
2022/07/24 06:46:47;;;;;;;;;;;;;;;23.82;48.34;99968.09;5095385;28;19917;-67
2022/07/24 06:49:13;;;;;;;;;;;;;;;23.80;48.40;99973.81;5095248;28;20015;-67
2022/07/24 06:51:38;;;;;;;;;;;;;;;23.81;48.32;99967.25;5094984;28;19961;-67
2022/07/24 06:54:03;;;;;;;;;;;;;;;23.81;48.34;99961.81;5094894;28;19932;-67
2022/07/24 06:56:28;;;;;;;;;;;;;;;23.79;48.52;99963.19;5095281;28;19920;-67
2022/07/24 06:58:54;;;;;;;;;;;;;;;23.79;48.43;99963.97;5095091;28;19916;-67
2022/07/24 07:01:19;;;;;;;;;;;;;;;23.78;48.40;99973.28;5095128;28;19917;-67
2022/07/24 07:03:44;;;;;;;;;;;;;;;23.79;48.62;99969.44;5095188;28;19963;-67
2022/07/24 07:06:09;;;;;;;;;;;;;;;23.81;48.48;99972.72;5095013;28;19923;-67
2022/07/24 07:08:37;;;;;;;;;;;;;;;23.80;48.31;99976.53;5092691;28;20316;-67
2022/07/24 07:11:03;;;;;;;;;;;;;;;23.78;48.50;99973.28;5074396;28;19916;-67
2022/07/24 07:13:28;;;;;;;;;;;;;;;23.79;48.48;99976.81;5074309;28;20382;-67
2022/07/24 07:15:53;;;;;;;;;;;;;;;23.78;48.41;99983.34;5074564;28;19917;-67
2022/07/24 07:18:19;;;;;;;;;;;;;;;23.79;48.54;99980.34;5074428;28;19985;-67
2022/07/24 07:20:44;;;;;;;;;;;;;;;23.80;48.32;99976.53;5074499;28;19917;-67
2022/07/24 07:23:09;;;;;;;;;;;;;;;23.75;48.46;99983.94;5074007;28;20017;-67
2022/07/24 07:25:34;;;;;;;;;;;;;;;23.77;48.64;99988.00;5073941;28;19925;-67
2022/07/24 07:28:00;;;;;;;;;;;;;;;23.78;48.49;99984.19;5074295;28;19981;-67
2022/07/24 07:30:25;;;;;;;;;;;;;;;23.79;48.62;99980.34;5074198;28;20003;-67
2022/07/24 07:32:52;;;;;;;;;;;;;;;23.77;48.79;99977.09;5073550;28;20212;-67
2022/07/24 07:35:17;;;;;;;;;;;;;;;23.78;48.47;99989.66;5073924;28;19923;-67
2022/07/24 07:37:46;;;;;;;;;;;;;;;23.80;48.62;99994.78;5074280;28;19966;-67
2022/07/24 07:40:11;;;;;;;;;;;;;;;23.76;48.52;99989.09;5074154;28;19923;-67
2022/07/24 07:42:36;;;;;;;;;;;;;;;23.77;48.71;99988.00;5074208;28;19916;-67
2022/07/24 07:45:02;;;;;;;;;;;;;;;23.79;48.69;99983.06;5074092;28;19917;-67
2022/07/24 07:47:27;;;;;;;;;;;;;;;23.77;48.56;99988.00;5074064;28;20346;-67
2022/07/24 07:49:52;;;;;;;;;;;;;;;23.78;48.51;99984.19;5073980;28;19920;-67
2022/07/24 07:52:18;;;;;;;;;;;;;;;23.78;48.54;99986.09;5072759;28;20389;-67
2022/07/24 07:54:45;;;;;;;;;;;;;;;23.77;48.54;99979.81;5073574;28;19921;-67
2022/07/24 07:57:10;;;;;;;;;;;;;;;23.77;48.72;99977.09;5073947;28;19938;-67
2022/07/24 07:59:35;;;;;;;;;;;;;;;23.77;48.72;99979.81;5073683;28;20405;-67
2022/07/24 08:02:03;;;;;;;;;;;;;;;23.79;48.67;99983.06;5073586;28;19917;-67
2022/07/24 08:04:29;;;;;;;;;;;;;;;23.78;48.79;99978.75;5073613;28;19978;-67
2022/07/24 08:06:54;;;;;;;;;;;;;;;23.79;48.78;99980.34;5073789;28;19916;-67
2022/07/24 08:09:20;;;;;;;;;;;;;;;23.80;48.82;99981.16;5081003;28;19955;-67
2022/07/24 08:11:46;;;;;;;;;;;;;;;23.81;48.95;99983.63;5093979;28;19920;-67
2022/07/24 08:14:11;;;;;;;;;;;;;;;23.79;49.03;99977.63;5093948;28;20402;-67
2022/07/24 08:16:36;;;;;;;;;;;;;;;23.82;48.97;99987.19;5093731;28;19963;-67
2022/07/24 08:19:02;;;;;;;;;;;;;;;23.80;48.81;99987.44;5093675;28;19916;-67
2022/07/24 08:21:28;;;;;;;;;;;;;;;23.82;48.89;99987.19;5093878;28;19970;-67
2022/07/24 08:23:53;;;;;;;;;;;;;;;23.80;49.01;99995.63;5093676;28;19951;-67
2022/07/24 08:26:18;;;;;;;;;;;;;;;23.78;49.19;100000.56;5093585;28;19931;-67
2022/07/24 08:28:44;;;;;;;;;;;;;;;23.79;48.96;99996.72;5093772;28;20392;-67
2022/07/24 08:31:13;;;;;;;;;;;;;;;23.83;49.06;99996.19;5093481;28;19927;-67
2022/07/24 08:33:38;;;;;;;;;;;;;;;23.81;48.99;100002.72;5092339;28;20397;-67
2022/07/24 08:36:04;;;;;;;;;;;;;;;23.84;49.23;100000.56;5093744;28;19916;-67
2022/07/24 08:38:29;;;;;;;;;;;;;;;23.81;49.25;100005.47;5093409;28;20405;-67
2022/07/24 08:40:55;;;;;;;;;;;;;;;23.81;48.87;100010.91;5093731;28;19916;-68
2022/07/24 08:43:20;;;;;;;;;;;;;;;23.81;49.09;100015.56;5093412;28;20362;-67
2022/07/24 08:45:46;;;;;;;;;;;;;;;23.84;48.99;100011.47;5092134;28;19924;-67
2022/07/24 08:48:11;;;;;;;;;;;;;;;23.77;49.25;100014.50;5093480;28;19916;-67
2022/07/24 08:50:37;;;;;;;;;;;;;;;23.80;49.38;100017.47;5093639;28;20388;-67
2022/07/24 08:53:03;;;;;;;;;;;;;;;23.78;49.10;100011.47;5093318;28;19916;-67
2022/07/24 08:55:28;;;;;;;;;;;;;;;23.81;49.31;100010.13;5093610;28;19923;-66
2022/07/24 08:57:57;;;;;;;;;;;;;;;23.81;49.24;100015.56;5093228;28;20381;-66
2022/07/24 09:00:22;;;;;;;;;;;;;;;23.83;49.18;100012.56;5093217;28;19917;-67
2022/07/24 09:02:49;;;;;;;;;;;;;;;23.83;49.14;100012.56;5093540;28;19928;-67
2022/07/24 09:05:14;;;;;;;;;;;;;;;23.84;49.02;100016.94;5093481;28;19919;-66
2022/07/24 09:07:39;;;;;;;;;;;;;;;23.83;49.32;100012.56;5095573;28;20394;-66
2022/07/24 09:10:06;;;;;;;;;;;;;;;23.77;49.40;100012.56;5083631;28;19921;-66
2022/07/24 09:12:32;;;;;;;;;;;;;;;23.79;49.33;100007.63;5077014;28;19950;-66
2022/07/24 09:14:58;;;;;;;;;;;;;;;23.80;49.23;100009.28;5076939;28;19923;-66
2022/07/24 09:17:23;;;;;;;;;;;;;;;23.79;49.44;100002.19;5076593;28;19924;-66
2022/07/24 09:19:52;;;;;;;;;;;;;;;23.84;49.31;100004.09;5076839;28;19959;-66
2022/07/24 09:22:33;;;;;;;;;;;;;;;23.85;49.33;99993.97;5076489;28;19924;-67
2022/07/24 09:25:07;;;;;;;;;;;;;;;23.80;49.47;100000.25;5076412;28;19966;-67
2022/07/24 09:27:33;;;;;;;;;;;;;;;23.79;49.32;99995.91;5076407;28;20019;-67
2022/07/24 09:29:58;;;;;;;;;;;;;;;23.80;49.35;99992.91;5076614;28;20015;-66
2022/07/24 09:32:24;;;;;;;;;;;;;;;23.82;49.48;99998.13;5075117;28;20370;-66
2022/07/24 09:34:50;;;;;;;;;;;;;;;23.80;49.54;99995.63;5076246;28;19938;-66
2022/07/24 09:37:16;;;;;;;;;;;;;;;23.81;49.49;100001.94;5077205;28;19939;-67
2022/07/24 09:39:41;;;;;;;;;;;;;;;23.83;49.63;100002.44;5075456;28;20359;-66
2022/07/24 09:42:07;;;;;;;;;;;;;;;23.80;49.91;100001.09;5076136;28;19951;-67
2022/07/24 09:44:32;;;;;;;;;;;;;;;23.83;49.63;100004.38;5076375;28;19916;-67
2022/07/24 09:47:02;;;;;;;;;;;;;;;23.83;49.86;100007.09;5074788;28;19959;-67
2022/07/24 09:49:28;;;;;;;;;;;;;;;23.80;49.78;100003.81;5075904;28;19917;-67
2022/07/24 09:52:05;;;;;;;;;;;;;;;23.83;49.77;100005.19;5076733;28;19921;-67
2022/07/24 09:54:32;;;;;;;;;;;;;;;23.78;49.70;100005.19;5076259;28;19916;-66
2022/07/24 09:57:17;;;;;;;;;;;;;;;23.83;49.76;100012.56;5075839;28;19924;-66
2022/07/24 09:59:45;;;;;;;;;;;;;;;23.83;49.71;100007.09;5075676;28;19917;-66
2022/07/24 10:02:11;;;;;;;;;;;;;;;23.83;49.85;100009.84;5076046;28;19982;-66
2022/07/24 10:04:36;;;;;;;;;;;;;;;23.83;49.64;100007.09;5075740;28;19923;-66
2022/07/24 10:07:02;;;;;;;;;;;;;;;23.83;49.65;100018.00;5074726;28;19917;-66
2022/07/24 10:09:27;;;;;;;;;;;;;;;23.84;49.70;100014.19;5082589;28;19916;-66
2022/07/24 10:11:52;;;;;;;;;;;;;;;23.84;49.64;100014.19;5095820;28;20394;-66
2022/07/24 10:14:18;;;;;;;;;;;;;;;23.86;49.62;100014.72;5094790;28;20293;-66
2022/07/24 10:16:43;;;;;;;;;;;;;;;23.83;49.71;100024.28;5095701;28;19920;-66
2022/07/24 10:19:08;;;;;;;;;;;;;;;23.83;49.88;100018.00;5093853;28;19916;-66
2022/07/24 10:21:34;;;;;;;;;;;;;;;23.84;49.73;100017.72;5094676;28;20370;-66
2022/07/24 10:24:09;;;;;;;;;;;;;;;23.87;49.54;100019.06;5095410;28;19948;-66
2022/07/24 10:26:41;;;;;;;;;;;;;;;23.84;49.71;100031.38;5095836;28;19961;-66
2022/07/24 10:29:19;;;;;;;;;;;;;;;23.86;49.67;100036.56;5095373;28;19963;-67
2022/07/24 10:31:45;;;;;;;;;;;;;;;23.84;49.88;100033.31;5095391;28;20429;-66
2022/07/24 10:34:16;;;;;;;;;;;;;;;23.85;49.57;100034.91;5096190;28;19952;-67
2022/07/24 10:36:55;;;;;;;;;;;;;;;23.86;50.02;100039.28;5095654;28;19923;-66
2022/07/24 10:39:22;;;;;;;;;;;;;;;23.83;49.69;100028.94;5094063;28;19923;-66
2022/07/24 10:42:00;;;;;;;;;;;;;;;23.85;49.70;100034.91;5094359;28;19981;-66
2022/07/24 10:44:25;;;;;;;;;;;;;;;23.85;49.50;100026.72;5095478;28;19923;-66
2022/07/24 10:47:01;;;;;;;;;;;;;;;23.85;49.76;100032.19;5093930;28;20324;-66
2022/07/24 10:49:35;;;;;;;;;;;;;;;23.86;49.64;100028.38;5095266;28;19916;-66
2022/07/24 10:52:01;;;;;;;;;;;;;;;23.86;49.65;100033.81;5095340;28;19922;-66
2022/07/24 10:54:26;;;;;;;;;;;;;;;23.84;49.49;100036.03;5095040;28;19916;-66
2022/07/24 10:56:52;;;;;;;;;;;;;;;23.85;49.45;100034.91;5095278;28;19916;-66
2022/07/24 10:59:19;;;;;;;;;;;;;;;23.86;49.30;100034.63;5095212;28;20362;-66
2022/07/24 11:01:46;;;;;;;;;;;;;;;23.87;49.28;100038.16;5093742;28;19963;-66
2022/07/24 11:04:22;;;;;;;;;;;;;;;23.86;49.43;100044.75;5095085;28;20002;-66
2022/07/24 11:06:47;;;;;;;;;;;;;;;23.86;49.44;100051.00;5094744;28;19958;-66
2022/07/24 11:09:13;;;;;;;;;;;;;;;23.86;49.48;100044.75;5090328;28;19960;-66
2022/07/24 11:11:42;;;;;;;;;;;;;;;23.87;49.53;100046.34;5074442;28;19916;-66
2022/07/24 11:14:07;;;;;;;;;;;;;;;23.86;49.48;100044.75;5074657;28;20267;-66
2022/07/24 11:16:32;;;;;;;;;;;;;;;23.83;49.46;100046.09;5073401;28;19917;-66
2022/07/24 11:19:01;;;;;;;;;;;;;;;23.83;49.56;100037.94;5074220;28;19962;-66
2022/07/24 11:21:36;;;;;;;;;;;;;;;23.84;49.54;100042.28;5074447;28;20003;-66
2022/07/24 11:24:10;;;;;;;;;;;;;;;23.87;49.70;100049.09;5074055;28;19928;-67
2022/07/24 11:26:40;;;;;;;;;;;;;;;23.88;49.56;100053.44;5074383;28;19927;-67
2022/07/24 11:29:12;;;;;;;;;;;;;;;23.87;49.62;100058.09;5073956;28;19927;-67
2022/07/24 11:31:37;;;;;;;;;;;;;;;23.88;49.77;100058.91;5074584;28;19924;-66
2022/07/24 11:34:02;;;;;;;;;;;;;;;23.86;49.70;100055.66;5073937;28;19917;-66
2022/07/24 11:36:27;;;;;;;;;;;;;;;23.85;49.99;100045.84;5073986;28;19916;-66
2022/07/24 11:38:53;;;;;;;;;;;;;;;23.86;49.83;100055.66;5074232;28;19960;-66
2022/07/24 11:41:18;;;;;;;;;;;;;;;23.86;49.90;100050.19;5072998;28;19923;-66
2022/07/24 11:43:50;;;;;;;;;;;;;;;23.86;49.79;100059.19;5073872;28;19921;-66
2022/07/24 11:46:16;;;;;;;;;;;;;;;23.88;49.54;100048.00;5074146;28;19916;-66
2022/07/24 11:48:41;;;;;;;;;;;;;;;23.87;49.78;100054.53;5072780;28;19916;-66
2022/07/24 11:51:06;;;;;;;;;;;;;;;23.87;49.61;100046.34;5073725;28;19916;-67
2022/07/24 11:53:32;;;;;;;;;;;;;;;23.88;49.73;100053.44;5074053;28;20431;-67
2022/07/24 11:56:03;;;;;;;;;;;;;;;23.88;49.56;100053.44;5072656;28;19956;-67
2022/07/24 11:58:29;;;;;;;;;;;;;;;23.89;49.97;100055.09;5073926;28;19916;-67
2022/07/24 12:00:54;;;;;;;;;;;;;;;23.88;49.87;100051.53;5073964;28;20270;-67
2022/07/24 12:03:20;;;;;;;;;;;;;;;23.89;49.69;100050.44;5074265;28;20020;-67
2022/07/24 12:05:45;;;;;;;;;;;;;;;23.89;49.94;100055.09;5073632;28;20284;-67
2022/07/24 12:08:19;;;;;;;;;;;;;;;23.89;50.05;100057.81;5073883;28;19917;-66
2022/07/24 12:10:44;;;;;;;;;;;;;;;23.88;50.17;100053.44;5089719;28;19927;-67
2022/07/24 12:13:10;;;;;;;;;;;;;;;23.88;49.89;100058.91;5093684;28;19916;-66
2022/07/24 12:15:37;;;;;;;;;;;;;;;23.86;49.83;100051.00;5094032;28;19916;-66
2022/07/24 12:18:06;;;;;;;;;;;;;;;23.86;49.74;100056.47;5094088;28;19944;-67
2022/07/24 12:20:38;;;;;;;;;;;;;;;23.86;49.98;100044.75;5093956;28;19916;-66
2022/07/24 12:23:10;;;;;;;;;;;;;;;23.87;49.81;100040.91;5093898;28;19967;-66
2022/07/24 12:25:36;;;;;;;;;;;;;;;23.88;50.06;100037.06;5093488;28;19924;-67
2022/07/24 12:28:02;;;;;;;;;;;;;;;23.87;50.11;100049.09;5093884;28;20432;-67
2022/07/24 12:30:28;;;;;;;;;;;;;;;23.87;50.06;100049.09;5093775;28;19916;-66
2022/07/24 12:32:54;;;;;;;;;;;;;;;23.89;49.80;100049.63;5093620;28;19920;-66
2022/07/24 12:35:19;;;;;;;;;;;;;;;23.86;49.93;100055.66;5093845;28;19916;-66
2022/07/24 12:37:45;;;;;;;;;;;;;;;23.87;49.89;100047.19;5093924;28;20274;-66